createdAt,value
2024-05-09T00:00:40.454Z,10.86
2024-05-09T00:01:38.832Z,10.86
2024-05-09T00:02:38.790Z,10.83
2024-05-09T00:03:38.811Z,10.84
2024-05-09T00:04:38.744Z,10.80
2024-05-09T00:05:38.940Z,10.73
2024-05-09T00:06:38.683Z,10.78
2024-05-09T00:07:38.664Z,10.63
2024-05-09T00:08:39.065Z,10.73
2024-05-09T00:09:38.860Z,10.73
2024-05-09T00:10:39.889Z,10.78
2024-05-09T00:11:38.655Z,10.72
2024-05-09T00:12:38.596Z,10.76
2024-05-09T00:13:38.583Z,10.69
2024-05-09T00:14:38.680Z,10.73
2024-05-09T00:15:38.575Z,10.66
2024-05-09T00:16:38.542Z,10.65
2024-05-09T00:17:38.980Z,10.58
2024-05-09T00:18:38.580Z,10.54
2024-05-09T00:19:38.622Z,10.65
2024-05-09T00:20:40.854Z,10.57
2024-05-09T00:21:38.480Z,10.47
2024-05-09T00:22:38.461Z,10.51
2024-05-09T00:23:38.521Z,10.47
2024-05-09T00:24:38.451Z,10.44
2024-05-09T00:25:38.443Z,10.36
2024-05-09T00:26:38.480Z,10.31
2024-05-09T00:27:38.389Z,10.42
2024-05-09T00:28:38.386Z,10.24
2024-05-09T00:29:38.417Z,10.24
2024-05-09T00:30:38.379Z,10.31
2024-05-09T00:31:38.344Z,10.22
2024-05-09T00:32:38.521Z,10.17
2024-05-09T00:33:38.518Z,10.07
2024-05-09T00:34:38.296Z,10.16
2024-05-09T00:35:38.830Z,10.13
2024-05-09T00:36:38.269Z,10.13
2024-05-09T00:37:38.256Z,10.13
2024-05-09T00:38:38.324Z,10.01
2024-05-09T00:39:38.235Z,10.16
2024-05-09T00:40:40.992Z,10.02
2024-05-09T00:41:38.336Z,10.06
2024-05-09T00:42:38.188Z,10.16
2024-05-09T00:43:38.192Z,10.22
2024-05-09T00:44:38.235Z,10.18
2024-05-09T00:45:38.217Z,10.14
2024-05-09T00:46:38.135Z,10.13
2024-05-09T00:47:38.362Z,9.99
2024-05-09T00:48:38.217Z,9.99
2024-05-09T00:49:38.206Z,10.07
2024-05-09T00:50:38.735Z,9.99
2024-05-09T00:51:38.064Z,9.92
2024-05-09T00:52:38.050Z,10.01
2024-05-09T00:53:38.111Z,10.01
2024-05-09T00:54:38.034Z,9.93
2024-05-09T00:55:38.030Z,9.93
2024-05-09T00:56:38.036Z,9.92
2024-05-09T00:57:38.243Z,9.93
2024-05-09T00:58:37.964Z,9.85
2024-05-09T00:59:38.029Z,9.80
2024-05-09T01:00:40.333Z,9.85
2024-05-09T01:01:38.017Z,9.83
2024-05-09T01:02:38.015Z,9.85
2024-05-09T01:03:38.347Z,9.91
2024-05-09T01:04:37.951Z,9.88
2024-05-09T01:05:37.905Z,9.86
2024-05-09T01:06:37.858Z,9.83
2024-05-09T01:07:37.845Z,9.81
2024-05-09T01:08:37.870Z,9.65
2024-05-09T01:09:37.818Z,9.73
2024-05-09T01:10:37.819Z,9.68
2024-05-09T01:11:37.864Z,9.68
2024-05-09T01:12:37.859Z,9.71
2024-05-09T01:13:37.776Z,9.67
2024-05-09T01:14:37.908Z,9.59
2024-05-09T01:15:37.789Z,9.67
2024-05-09T01:16:37.882Z,9.63
2024-05-09T01:17:37.977Z,9.65
2024-05-09T01:18:37.757Z,9.50
2024-05-09T01:19:37.786Z,9.56
2024-05-09T01:20:42.191Z,9.58
2024-05-09T01:21:38.689Z,9.49
2024-05-09T01:22:37.943Z,9.48
2024-05-09T01:23:37.738Z,9.48
2024-05-09T01:24:37.614Z,9.56
2024-05-09T01:25:37.641Z,9.60
2024-05-09T01:26:37.618Z,9.45
2024-05-09T01:27:37.578Z,9.49
2024-05-09T01:28:37.556Z,9.56
2024-05-09T01:29:37.627Z,9.49
2024-05-09T01:30:38.349Z,9.48
2024-05-09T01:31:37.540Z,9.38
2024-05-09T01:32:37.575Z,9.40
2024-05-09T01:33:37.755Z,9.41
2024-05-09T01:34:37.482Z,9.38
2024-05-09T01:35:37.726Z,9.31
2024-05-09T01:36:37.852Z,9.27
2024-05-09T01:37:37.733Z,9.37
2024-05-09T01:38:37.496Z,9.24
2024-05-09T01:39:37.411Z,9.34
2024-05-09T01:40:39.926Z,9.37
2024-05-09T01:41:37.435Z,9.26
2024-05-09T01:42:37.363Z,9.30
2024-05-09T01:43:37.373Z,9.23
2024-05-09T01:44:37.408Z,9.26
2024-05-09T01:45:37.498Z,9.01
2024-05-09T01:46:37.325Z,9.12
2024-05-09T01:47:37.514Z,9.17
2024-05-09T01:48:37.390Z,9.01
2024-05-09T01:49:37.388Z,9.08
2024-05-09T01:50:40.973Z,9.06
2024-05-09T01:51:37.254Z,9.17
2024-05-09T01:52:37.233Z,9.16
2024-05-09T01:53:37.340Z,9.03
2024-05-09T01:54:37.213Z,9.01
2024-05-09T01:55:37.459Z,9.04
2024-05-09T01:56:37.236Z,9.06
2024-05-09T01:57:37.710Z,9.12
2024-05-09T01:58:37.145Z,9.01
2024-05-09T01:59:37.155Z,9.03
2024-05-09T02:00:40.998Z,9.04
2024-05-09T02:01:55.679Z,8.94
2024-05-09T02:02:38.224Z,8.96
2024-05-09T02:03:37.243Z,9.00
2024-05-09T02:04:37.088Z,8.93
2024-05-09T02:05:37.780Z,8.91
2024-05-09T02:06:37.040Z,8.91
2024-05-09T02:07:37.023Z,8.80
2024-05-09T02:08:37.191Z,8.91
2024-05-09T02:09:37.344Z,8.78
2024-05-09T02:10:37.530Z,8.88
2024-05-09T02:11:37.081Z,8.80
2024-05-09T02:12:36.955Z,8.89
2024-05-09T02:13:36.941Z,8.82
2024-05-09T02:14:36.993Z,8.75
2024-05-09T02:15:36.921Z,8.71
2024-05-09T02:16:36.917Z,8.91
2024-05-09T02:17:37.138Z,8.75
2024-05-09T02:18:36.918Z,8.76
2024-05-09T02:19:36.904Z,8.79
2024-05-09T02:20:37.214Z,8.76
2024-05-09T02:21:36.827Z,8.67
2024-05-09T02:22:36.824Z,8.64
2024-05-09T02:23:36.987Z,8.73
2024-05-09T02:24:36.794Z,8.78
2024-05-09T02:25:36.818Z,8.76
2024-05-09T02:26:36.796Z,8.67
2024-05-09T02:27:36.748Z,8.68
2024-05-09T02:28:36.740Z,8.63
2024-05-09T02:29:36.771Z,8.65
2024-05-09T02:30:40.603Z,8.60
2024-05-09T02:31:36.696Z,8.65
2024-05-09T02:32:36.786Z,8.71
2024-05-09T02:33:36.868Z,8.60
2024-05-09T02:34:36.731Z,8.70
2024-05-09T02:35:36.682Z,8.63
2024-05-09T02:36:36.625Z,8.58
2024-05-09T02:37:36.621Z,8.67
2024-05-09T02:38:36.691Z,8.63
2024-05-09T02:39:36.588Z,8.54
2024-05-09T02:40:38.904Z,8.61
2024-05-09T02:41:36.825Z,8.57
2024-05-09T02:42:36.545Z,8.60
2024-05-09T02:43:36.539Z,8.64
2024-05-09T02:44:36.577Z,8.57
2024-05-09T02:45:36.512Z,8.52
2024-05-09T02:46:36.488Z,8.60
2024-05-09T02:47:36.609Z,8.49
2024-05-09T02:48:36.607Z,8.57
2024-05-09T02:49:36.805Z,8.52
2024-05-09T02:50:39.320Z,8.57
2024-05-09T02:51:36.417Z,8.58
2024-05-09T02:52:36.405Z,8.58
2024-05-09T02:53:36.469Z,8.61
2024-05-09T02:54:36.384Z,8.50
2024-05-09T02:55:36.365Z,8.52
2024-05-09T02:56:36.400Z,8.54
2024-05-09T02:57:36.345Z,8.64
2024-05-09T02:58:36.324Z,8.54
2024-05-09T02:59:36.363Z,8.55
2024-05-09T03:00:39.653Z,8.52
2024-05-09T03:01:36.361Z,8.57
2024-05-09T03:02:36.366Z,8.55
2024-05-09T03:03:36.661Z,8.65
2024-05-09T03:04:36.365Z,8.54
2024-05-09T03:05:36.490Z,8.55
2024-05-09T03:06:36.215Z,8.54
2024-05-09T03:07:36.216Z,8.60
2024-05-09T03:08:36.299Z,8.58
2024-05-09T03:09:36.572Z,8.61
2024-05-09T03:10:38.338Z,8.67
2024-05-09T03:11:36.270Z,8.54
2024-05-09T03:12:37.961Z,8.60
2024-05-09T03:13:36.120Z,8.43
2024-05-09T03:14:36.165Z,8.65
2024-05-09T03:15:36.121Z,8.50
2024-05-09T03:16:36.082Z,8.46
2024-05-09T03:17:36.318Z,8.47
2024-05-09T03:18:36.241Z,8.45
2024-05-09T03:19:36.086Z,8.39
2024-05-09T03:20:37.011Z,8.52
2024-05-09T03:21:36.018Z,8.47
2024-05-09T03:22:35.992Z,8.46
2024-05-09T03:23:36.140Z,8.47
2024-05-09T03:24:35.964Z,8.43
2024-05-09T03:25:36.125Z,8.37
2024-05-09T03:26:35.983Z,8.45
2024-05-09T03:27:35.919Z,8.37
2024-05-09T03:28:35.916Z,8.49
2024-05-09T03:29:35.924Z,8.42
2024-05-09T03:30:41.234Z,8.50
2024-05-09T03:31:36.948Z,8.42
2024-05-09T03:32:36.007Z,8.43
2024-05-09T03:33:36.012Z,8.46
2024-05-09T03:34:35.829Z,8.47
2024-05-09T03:35:35.905Z,8.49
2024-05-09T03:36:35.827Z,8.49
2024-05-09T03:37:35.801Z,8.37
2024-05-09T03:38:35.791Z,8.39
2024-05-09T03:39:35.753Z,8.46
2024-05-09T03:40:35.742Z,8.43
2024-05-09T03:41:35.864Z,8.39
2024-05-09T03:42:35.719Z,8.55
2024-05-09T03:43:35.702Z,8.52
2024-05-09T03:44:35.794Z,8.40
2024-05-09T03:45:35.675Z,8.43
2024-05-09T03:46:35.661Z,8.50
2024-05-09T03:47:35.944Z,8.49
2024-05-09T03:48:35.739Z,8.52
2024-05-09T03:49:36.235Z,8.42
2024-05-09T03:50:36.846Z,8.43
2024-05-09T03:51:35.603Z,8.46
2024-05-09T03:52:35.595Z,8.52
2024-05-09T03:53:35.720Z,8.43
2024-05-09T03:54:35.547Z,8.50
2024-05-09T03:55:35.540Z,8.36
2024-05-09T03:56:35.569Z,8.57
2024-05-09T03:57:35.538Z,8.61
2024-05-09T03:58:35.497Z,8.45
2024-05-09T03:59:35.556Z,8.45
2024-05-09T04:00:38.724Z,8.47
2024-05-09T04:01:35.633Z,8.57
2024-05-09T04:02:35.555Z,8.46
2024-05-09T04:03:35.794Z,8.52
2024-05-09T04:04:35.485Z,8.49
2024-05-09T04:05:35.505Z,8.50
2024-05-09T04:06:35.391Z,8.52
2024-05-09T04:07:35.371Z,8.61
2024-05-09T04:08:35.483Z,8.52
2024-05-09T04:09:35.355Z,8.49
2024-05-09T04:10:35.753Z,8.58
2024-05-09T04:11:35.478Z,8.52
2024-05-09T04:12:35.327Z,8.43
2024-05-09T04:13:35.786Z,8.40
2024-05-09T04:14:35.304Z,8.43
2024-05-09T04:15:35.283Z,8.64
2024-05-09T04:16:35.249Z,8.64
2024-05-09T04:17:35.587Z,8.63
2024-05-09T04:18:35.363Z,8.63
2024-05-09T04:19:35.263Z,8.68
2024-05-09T04:20:39.046Z,8.64
2024-05-09T04:21:35.187Z,8.67
2024-05-09T04:22:35.172Z,8.68
2024-05-09T04:23:35.212Z,8.64
2024-05-09T04:24:35.152Z,8.71
2024-05-09T04:25:35.203Z,8.61
2024-05-09T04:26:35.207Z,8.68
2024-05-09T04:27:35.092Z,8.67
2024-05-09T04:28:35.083Z,8.64
2024-05-09T04:29:35.120Z,8.70
2024-05-09T04:30:39.202Z,8.76
2024-05-09T04:31:36.068Z,8.76
2024-05-09T04:32:35.276Z,8.63
2024-05-09T04:33:35.188Z,8.65
2024-05-09T04:34:35.074Z,8.67
2024-05-09T04:35:35.045Z,8.80
2024-05-09T04:36:34.969Z,8.67
2024-05-09T04:37:34.956Z,8.79
2024-05-09T04:38:35.073Z,8.78
2024-05-09T04:39:34.929Z,8.83
2024-05-09T04:40:36.836Z,8.96
2024-05-09T04:41:34.954Z,8.91
2024-05-09T04:42:34.888Z,8.86
2024-05-09T04:43:34.879Z,8.98
2024-05-09T04:44:34.904Z,8.83
2024-05-09T04:45:35.425Z,8.94
2024-05-09T04:46:34.834Z,8.79
2024-05-09T04:47:35.084Z,8.89
2024-05-09T04:48:34.894Z,8.82
2024-05-09T04:49:34.984Z,8.75
2024-05-09T04:50:38.256Z,8.85
2024-05-09T04:51:34.763Z,8.79
2024-05-09T04:52:34.791Z,8.88
2024-05-09T04:53:35.106Z,8.89
2024-05-09T04:54:36.586Z,8.85
2024-05-09T04:55:34.756Z,9.03
2024-05-09T04:56:34.761Z,8.97
2024-05-09T04:57:34.702Z,9.08
2024-05-09T04:58:34.696Z,9.12
2024-05-09T04:59:34.751Z,9.13
2024-05-09T05:00:37.337Z,9.03
2024-05-09T05:01:34.688Z,9.13
2024-05-09T05:02:34.726Z,9.01
2024-05-09T05:03:34.751Z,9.08
2024-05-09T05:04:34.616Z,9.15
2024-05-09T05:05:34.664Z,9.30
2024-05-09T05:06:34.562Z,9.32
2024-05-09T05:07:34.554Z,9.37
2024-05-09T05:08:34.800Z,9.32
2024-05-09T05:09:34.517Z,9.31
2024-05-09T05:10:36.562Z,9.38
2024-05-09T05:11:34.550Z,9.30
2024-05-09T05:12:34.646Z,9.32
2024-05-09T05:13:36.101Z,9.48
2024-05-09T05:14:34.499Z,9.56
2024-05-09T05:15:34.435Z,9.58
2024-05-09T05:16:34.423Z,9.70
2024-05-09T05:17:34.731Z,9.86
2024-05-09T05:18:34.469Z,10.04
2024-05-09T05:19:34.601Z,10.09
2024-05-09T05:20:34.577Z,10.32
2024-05-09T05:21:34.391Z,10.35
2024-05-09T05:22:34.391Z,10.54
2024-05-09T05:23:34.471Z,10.58
2024-05-09T05:24:34.317Z,10.70
2024-05-09T05:25:34.573Z,10.75
2024-05-09T05:26:34.452Z,10.80
2024-05-09T05:27:34.272Z,10.66
2024-05-09T05:28:34.282Z,10.60
2024-05-09T05:29:34.464Z,10.80
2024-05-09T05:30:35.091Z,10.81
2024-05-09T05:31:34.274Z,10.87
2024-05-09T05:32:34.355Z,10.81
2024-05-09T05:33:34.335Z,10.68
2024-05-09T05:34:34.179Z,10.75
2024-05-09T05:35:34.570Z,10.84
2024-05-09T05:36:34.164Z,10.73
2024-05-09T05:37:34.297Z,10.86
2024-05-09T05:38:34.156Z,10.78
2024-05-09T05:39:34.113Z,10.86
2024-05-09T05:40:37.168Z,10.84
2024-05-09T05:41:34.128Z,10.72
2024-05-09T05:42:34.072Z,10.83
2024-05-09T05:43:34.059Z,10.73
2024-05-09T05:44:34.138Z,10.65
2024-05-09T05:45:34.061Z,10.68
2024-05-09T05:46:34.027Z,10.69
2024-05-09T05:47:34.317Z,10.58
2024-05-09T05:48:34.076Z,10.51
2024-05-09T05:49:34.070Z,10.34
2024-05-09T05:50:36.619Z,10.44
2024-05-09T05:51:33.943Z,10.26
2024-05-09T05:52:33.944Z,10.26
2024-05-09T05:53:34.556Z,10.25
2024-05-09T05:54:33.910Z,10.25
2024-05-09T05:55:33.935Z,10.34
2024-05-09T05:56:34.032Z,10.24
2024-05-09T05:57:33.867Z,10.34
2024-05-09T05:58:33.868Z,10.31
2024-05-09T05:59:33.898Z,10.39
2024-05-09T06:00:38.563Z,10.36
2024-05-09T06:01:34.894Z,10.39
2024-05-09T06:02:33.871Z,10.38
2024-05-09T06:03:33.973Z,10.38
2024-05-09T06:04:33.780Z,10.26
2024-05-09T06:05:33.913Z,10.39
2024-05-09T06:06:33.994Z,10.35
2024-05-09T06:07:33.727Z,10.49
2024-05-09T06:08:33.782Z,10.58
2024-05-09T06:09:33.704Z,10.87
2024-05-09T06:10:38.758Z,11.17
2024-05-09T06:11:34.812Z,11.51
2024-05-09T06:12:33.660Z,11.82
2024-05-09T06:13:33.658Z,12.25
2024-05-09T06:14:33.683Z,12.58
2024-05-09T06:15:33.656Z,12.84
2024-05-09T06:16:33.621Z,13.21
2024-05-09T06:17:33.752Z,13.55
2024-05-09T06:18:33.789Z,14.05
2024-05-09T06:19:33.776Z,14.60
2024-05-09T06:20:36.385Z,15.09
2024-05-09T06:21:33.537Z,15.28
2024-05-09T06:22:33.523Z,15.52
2024-05-09T06:23:33.731Z,15.76
2024-05-09T06:24:33.503Z,15.91
2024-05-09T06:25:33.489Z,16.13
2024-05-09T06:26:33.556Z,16.42
2024-05-09T06:27:33.459Z,16.57
2024-05-09T06:28:33.452Z,16.36
2024-05-09T06:29:33.500Z,16.16
2024-05-09T06:30:38.437Z,16.34
2024-05-09T06:31:34.427Z,16.62
2024-05-09T06:32:33.614Z,16.80
2024-05-09T06:33:33.835Z,16.91
2024-05-09T06:34:33.534Z,17.22
2024-05-09T06:35:33.747Z,17.57
2024-05-09T06:36:33.344Z,17.83
2024-05-09T06:37:33.335Z,18.04
2024-05-09T06:38:33.429Z,18.11
2024-05-09T06:39:33.308Z,18.09
2024-05-09T06:40:37.381Z,18.07
2024-05-09T06:41:34.410Z,17.89
2024-05-09T06:42:33.268Z,18.04
2024-05-09T06:43:33.238Z,18.21
2024-05-09T06:44:33.250Z,18.41
2024-05-09T06:45:33.210Z,18.57
2024-05-09T06:46:33.198Z,18.75
2024-05-09T06:47:33.383Z,18.94
2024-05-09T06:48:33.429Z,18.99
2024-05-09T06:49:33.301Z,19.15
2024-05-09T06:50:37.550Z,19.27
2024-05-09T06:51:34.149Z,19.38
2024-05-09T06:52:33.224Z,19.52
2024-05-09T06:53:33.384Z,19.58
2024-05-09T06:54:33.091Z,19.61
2024-05-09T06:55:33.091Z,19.32
2024-05-09T06:56:33.306Z,19.17
2024-05-09T06:57:33.070Z,19.07
2024-05-09T06:58:33.035Z,19.39
2024-05-09T06:59:33.244Z,19.52
2024-05-09T07:00:38.655Z,19.80
2024-05-09T07:01:34.042Z,19.83
2024-05-09T07:02:33.076Z,19.85
2024-05-09T07:03:33.076Z,20.02
2024-05-09T07:04:33.046Z,20.16
2024-05-09T07:05:33.182Z,20.46
2024-05-09T07:06:32.943Z,20.66
2024-05-09T07:07:32.911Z,20.88
2024-05-09T07:08:33.095Z,21.06
2024-05-09T07:09:32.886Z,20.98
2024-05-09T07:10:35.436Z,21.05
2024-05-09T07:11:32.904Z,21.06
2024-05-09T07:12:32.983Z,21.26
2024-05-09T07:13:32.827Z,21.26
2024-05-09T07:14:34.527Z,21.16
2024-05-09T07:15:32.803Z,21.03
2024-05-09T07:16:32.796Z,20.96
2024-05-09T07:17:32.894Z,20.87
2024-05-09T07:18:32.956Z,20.38
2024-05-09T07:19:32.860Z,20.35
2024-05-09T07:20:34.965Z,20.07
2024-05-09T07:21:32.723Z,19.57
2024-05-09T07:22:32.717Z,19.47
2024-05-09T07:23:32.844Z,19.78
2024-05-09T07:24:32.682Z,20.20
2024-05-09T07:25:32.675Z,20.53
2024-05-09T07:26:32.731Z,20.69
2024-05-09T07:27:32.646Z,20.63
2024-05-09T07:28:32.659Z,20.50
2024-05-09T07:29:34.706Z,20.83
2024-05-09T07:30:34.530Z,21.22
2024-05-09T07:31:32.791Z,21.59
2024-05-09T07:32:32.694Z,21.98
2024-05-09T07:33:32.724Z,22.11
2024-05-09T07:34:32.697Z,21.68
2024-05-09T07:35:32.935Z,21.61
2024-05-09T07:36:32.554Z,21.75
2024-05-09T07:37:32.519Z,21.91
2024-05-09T07:38:32.671Z,22.02
2024-05-09T07:39:32.485Z,22.27
2024-05-09T07:40:36.200Z,22.52
2024-05-09T07:41:32.608Z,22.72
2024-05-09T07:42:32.452Z,22.79
2024-05-09T07:43:32.456Z,22.26
2024-05-09T07:44:32.500Z,21.99
2024-05-09T07:45:47.596Z,22.11
2024-05-09T07:48:57.527Z,21.90
2024-05-09T07:50:34.253Z,22.08
2024-05-09T07:52:22.978Z,22.41
2024-05-09T07:53:33.029Z,22.76
2024-05-09T07:53:40.998Z,22.82
2024-05-09T07:54:33.422Z,22.76
2024-05-09T07:55:32.554Z,22.89
2024-05-09T07:56:32.414Z,22.51
2024-05-09T07:57:32.425Z,22.05
2024-05-09T07:58:32.225Z,21.86
2024-05-09T07:59:36.078Z,21.70
2024-05-09T08:00:32.362Z,21.59
2024-05-09T08:01:32.272Z,21.64
2024-05-09T08:02:32.354Z,21.94
2024-05-09T08:03:32.325Z,22.29
2024-05-09T08:04:32.270Z,22.75
2024-05-09T08:05:32.382Z,23.19
2024-05-09T08:06:32.149Z,23.62
2024-05-09T08:07:32.108Z,23.71
2024-05-09T08:08:32.108Z,23.62
2024-05-09T08:09:32.106Z,23.60
2024-05-09T08:10:32.155Z,23.79
2024-05-09T08:11:32.100Z,24.05
2024-05-09T08:12:32.074Z,24.02
2024-05-09T08:13:32.026Z,24.08
2024-05-09T08:14:32.012Z,24.23
2024-05-09T08:15:32.066Z,24.15
2024-05-09T08:16:32.073Z,23.92
2024-05-09T08:17:32.060Z,23.97
2024-05-09T08:18:32.267Z,24.31
2024-05-09T08:19:31.978Z,24.34
2024-05-09T08:20:35.222Z,23.68
2024-05-09T08:21:31.987Z,23.41
2024-05-09T08:22:31.902Z,23.60
2024-05-09T08:23:31.911Z,23.99
2024-05-09T08:24:31.952Z,24.44
2024-05-09T08:25:31.939Z,24.41
2024-05-09T08:26:31.848Z,23.82
2024-05-09T08:27:32.433Z,23.68
2024-05-09T08:28:31.985Z,23.97
2024-05-09T08:29:31.812Z,23.75
2024-05-09T08:30:36.570Z,23.75
2024-05-09T08:31:32.895Z,23.89
2024-05-09T08:32:31.873Z,23.92
2024-05-09T08:33:32.090Z,23.99
2024-05-09T08:34:31.906Z,23.92
2024-05-09T08:35:31.816Z,23.54
2024-05-09T08:36:31.799Z,23.38
2024-05-09T08:37:36.690Z,23.38
2024-05-09T08:38:32.722Z,23.77
2024-05-09T08:39:31.727Z,23.68
2024-05-09T08:40:35.324Z,23.60
2024-05-09T08:41:31.715Z,23.94
2024-05-09T08:42:31.711Z,23.92
2024-05-09T08:43:31.718Z,23.64
2024-05-09T08:44:32.071Z,22.94
2024-05-09T08:45:31.659Z,22.72
2024-05-09T08:46:31.754Z,22.81
2024-05-09T08:47:31.761Z,23.00
2024-05-09T08:48:31.786Z,23.22
2024-05-09T08:49:31.765Z,23.26
2024-05-09T08:50:37.974Z,23.50
2024-05-09T08:51:32.592Z,23.62
2024-05-09T08:52:31.554Z,23.79
2024-05-09T08:53:31.498Z,24.00
2024-05-09T08:54:31.575Z,24.52
2024-05-09T08:55:31.485Z,24.55
2024-05-09T08:56:31.474Z,24.90
2024-05-09T08:57:31.476Z,25.07
2024-05-09T08:58:31.429Z,25.20
2024-05-09T08:59:31.518Z,25.26
2024-05-09T09:00:36.616Z,25.24
2024-05-09T09:01:32.486Z,24.75
2024-05-09T09:02:31.656Z,23.89
2024-05-09T09:03:31.693Z,23.59
2024-05-09T09:04:31.468Z,23.41
2024-05-09T09:05:32.006Z,23.56
2024-05-09T09:06:31.381Z,23.75
2024-05-09T09:07:31.404Z,23.97
2024-05-09T09:08:31.749Z,24.29
2024-05-09T09:09:31.331Z,24.29
2024-05-09T09:10:32.736Z,24.51
2024-05-09T09:11:31.291Z,24.83
2024-05-09T09:12:31.304Z,25.35
2024-05-09T09:13:31.240Z,25.22
2024-05-09T09:14:31.237Z,24.89
2024-05-09T09:15:31.307Z,24.83
2024-05-09T09:16:31.234Z,25.07
2024-05-09T09:17:31.241Z,25.42
2024-05-09T09:18:31.478Z,25.71
2024-05-09T09:19:31.225Z,26.00
2024-05-09T09:20:36.371Z,26.42
2024-05-09T09:21:31.142Z,26.69
2024-05-09T09:22:31.114Z,26.41
2024-05-09T09:23:31.333Z,25.81
2024-05-09T09:24:31.122Z,25.45
2024-05-09T09:25:31.077Z,25.72
2024-05-09T09:26:31.063Z,26.09
2024-05-09T09:27:31.094Z,26.19
2024-05-09T09:28:31.053Z,26.27
2024-05-09T09:29:31.036Z,26.53
2024-05-09T09:30:36.731Z,26.93
2024-05-09T09:31:32.141Z,27.27
2024-05-09T09:32:31.082Z,27.35
2024-05-09T09:33:31.187Z,27.35
2024-05-09T09:34:31.717Z,27.49
2024-05-09T09:35:30.976Z,26.79
2024-05-09T09:36:30.984Z,26.42
2024-05-09T09:37:30.924Z,26.12
2024-05-09T09:38:30.905Z,26.24
2024-05-09T09:39:30.957Z,26.53
2024-05-09T09:40:32.984Z,26.81
2024-05-09T09:41:30.868Z,27.06
2024-05-09T09:42:30.908Z,27.24
2024-05-09T09:43:30.852Z,27.33
2024-05-09T09:44:30.842Z,26.94
2024-05-09T09:45:30.867Z,26.29
2024-05-09T09:46:30.923Z,26.16
2024-05-09T09:47:30.901Z,25.81
2024-05-09T09:48:30.979Z,25.20
2024-05-09T09:49:30.838Z,24.42
2024-05-09T09:50:34.494Z,24.61
2024-05-09T09:51:30.787Z,24.82
2024-05-09T09:52:30.751Z,24.74
2024-05-09T09:53:30.708Z,24.80
2024-05-09T09:54:30.724Z,24.83
2024-05-09T09:55:30.686Z,24.80
2024-05-09T09:56:30.676Z,24.90
2024-05-09T09:57:30.705Z,25.12
2024-05-09T09:58:30.724Z,25.51
2024-05-09T09:59:30.631Z,25.71
2024-05-09T10:00:33.282Z,25.79
2024-05-09T10:01:30.808Z,25.56
2024-05-09T10:02:30.763Z,25.89
2024-05-09T10:03:30.788Z,25.74
2024-05-09T10:04:30.650Z,25.78
2024-05-09T10:05:31.072Z,26.04
2024-05-09T10:06:30.626Z,25.51
2024-05-09T10:07:30.543Z,25.17
2024-05-09T10:08:30.577Z,24.84
2024-05-09T10:09:30.574Z,24.66
2024-05-09T10:10:32.884Z,24.64
2024-05-09T10:11:31.673Z,24.52
2024-05-09T10:12:30.580Z,24.59
2024-05-09T10:13:30.491Z,24.82
2024-05-09T10:14:30.452Z,25.09
2024-05-09T10:15:30.454Z,24.89
2024-05-09T10:16:30.460Z,24.44
2024-05-09T10:17:30.464Z,24.46
2024-05-09T10:18:32.033Z,23.97
2024-05-09T10:19:30.418Z,24.05
2024-05-09T10:21:30.539Z,24.44
2024-05-09T10:22:30.329Z,24.63
2024-05-09T10:23:30.308Z,24.75
2024-05-09T10:24:30.326Z,24.29
2024-05-09T10:25:30.366Z,23.79
2024-05-09T10:26:30.272Z,23.49
2024-05-09T10:27:30.286Z,23.62
2024-05-09T10:28:30.706Z,23.86
2024-05-09T10:29:30.237Z,24.18
2024-05-09T10:30:35.782Z,24.36
2024-05-09T10:31:31.418Z,24.59
2024-05-09T10:32:30.286Z,24.51
2024-05-09T10:33:30.540Z,24.56
2024-05-09T10:34:30.254Z,24.46
2024-05-09T10:35:30.151Z,24.45
2024-05-09T10:36:30.179Z,24.48
2024-05-09T10:37:30.442Z,24.27
2024-05-09T10:38:30.111Z,24.49
2024-05-09T10:39:30.155Z,24.45
2024-05-09T10:40:31.814Z,24.02
2024-05-09T10:41:30.081Z,23.86
2024-05-09T10:42:30.169Z,23.96
2024-05-09T10:43:30.181Z,24.00
2024-05-09T10:44:30.035Z,24.15
2024-05-09T10:45:30.129Z,24.18
2024-05-09T10:46:30.049Z,24.26
2024-05-09T10:47:30.423Z,24.56
2024-05-09T10:48:30.141Z,24.79
2024-05-09T10:49:30.019Z,24.77
2024-05-09T10:50:34.089Z,24.61
2024-05-09T10:51:29.959Z,24.24
2024-05-09T10:52:29.934Z,24.21
2024-05-09T10:53:29.918Z,24.16
2024-05-09T10:54:29.947Z,24.08
2024-05-09T10:55:29.946Z,24.16
2024-05-09T10:56:29.877Z,24.18
2024-05-09T10:57:29.924Z,24.19
2024-05-09T10:58:29.855Z,24.36
2024-05-09T10:59:29.875Z,24.46
2024-05-09T11:00:33.895Z,24.63
2024-05-09T11:01:30.945Z,24.60
2024-05-09T11:02:29.916Z,24.51
2024-05-09T11:03:30.053Z,24.37
2024-05-09T11:04:29.884Z,24.18
2024-05-09T11:05:29.873Z,24.21
2024-05-09T11:06:29.771Z,24.30
2024-05-09T11:07:29.788Z,24.24
2024-05-09T11:08:29.726Z,24.44
2024-05-09T11:09:29.753Z,24.45
2024-05-09T11:10:33.810Z,24.53
2024-05-09T11:11:29.729Z,24.31
2024-05-09T11:12:29.712Z,24.21
2024-05-09T11:13:29.679Z,24.23
2024-05-09T11:14:29.653Z,24.29
2024-05-09T11:15:29.675Z,24.36
2024-05-09T11:16:29.699Z,24.45
2024-05-09T11:17:29.675Z,24.19
2024-05-09T11:18:32.307Z,23.86
2024-05-09T11:19:29.704Z,23.57
2024-05-09T11:20:30.313Z,23.29
2024-05-09T11:21:29.643Z,22.97
2024-05-09T11:22:29.562Z,22.75
2024-05-09T11:23:29.538Z,22.36
2024-05-09T11:24:29.571Z,22.41
2024-05-09T11:25:29.508Z,22.51
2024-05-09T11:26:29.678Z,22.61
2024-05-09T11:27:29.545Z,22.81
2024-05-09T11:28:29.461Z,23.11
2024-05-09T11:29:29.454Z,23.50
2024-05-09T11:30:31.906Z,23.57
2024-05-09T11:31:29.619Z,23.63
2024-05-09T11:32:29.745Z,23.59
2024-05-09T11:33:29.546Z,23.52
2024-05-09T11:34:29.488Z,23.21
2024-05-09T11:35:29.428Z,22.81
2024-05-09T11:36:29.414Z,22.56
2024-05-09T11:37:29.397Z,22.63
2024-05-09T11:38:29.333Z,22.72
2024-05-09T11:39:29.363Z,22.86
2024-05-09T11:40:34.191Z,22.82
2024-05-09T11:41:29.298Z,22.74
2024-05-09T11:42:29.321Z,22.64
2024-05-09T11:43:29.409Z,22.49
2024-05-09T11:44:29.268Z,22.20
2024-05-09T11:45:29.279Z,21.99
2024-05-09T11:46:29.427Z,21.93
2024-05-09T11:47:29.281Z,21.94
2024-05-09T11:48:29.427Z,22.04
2024-05-09T11:49:29.300Z,22.01
2024-05-09T11:50:32.930Z,22.04
2024-05-09T11:51:30.210Z,22.11
2024-05-09T11:52:29.163Z,22.17
2024-05-09T11:53:29.132Z,22.15
2024-05-09T11:54:29.414Z,22.02
2024-05-09T11:55:29.286Z,21.81
2024-05-09T11:56:29.091Z,21.94
2024-05-09T11:57:29.117Z,22.24
2024-05-09T11:58:29.089Z,22.49
2024-05-09T11:59:29.060Z,22.45
2024-05-09T12:00:36.098Z,22.38
2024-05-09T12:01:30.195Z,21.96
2024-05-09T12:02:29.496Z,21.64
2024-05-09T12:03:29.150Z,21.53
2024-05-09T12:04:29.209Z,21.37
2024-05-09T12:05:29.286Z,21.40
2024-05-09T12:06:28.977Z,21.40
2024-05-09T12:07:28.960Z,21.49
2024-05-09T12:08:28.948Z,21.56
2024-05-09T12:09:29.017Z,21.73
2024-05-09T12:10:33.525Z,21.63
2024-05-09T12:11:29.948Z,21.46
2024-05-09T12:12:28.931Z,21.36
2024-05-09T12:13:28.952Z,21.56
2024-05-09T12:14:28.874Z,21.64
2024-05-09T12:15:29.000Z,21.75
2024-05-09T12:16:28.952Z,21.79
2024-05-09T12:17:28.995Z,21.64
2024-05-09T12:18:28.961Z,21.48
2024-05-09T12:19:28.837Z,21.27
2024-05-09T12:20:35.974Z,21.31
2024-05-09T12:21:29.857Z,21.31
2024-05-09T12:22:28.750Z,21.36
2024-05-09T12:23:28.733Z,21.48
2024-05-09T12:24:28.819Z,21.48
2024-05-09T12:25:29.154Z,21.43
2024-05-09T12:26:28.692Z,21.42
2024-05-09T12:27:28.710Z,21.45
2024-05-09T12:28:28.711Z,21.55
2024-05-09T12:29:28.655Z,21.58
2024-05-09T12:30:35.990Z,21.59
2024-05-09T12:31:29.681Z,21.70
2024-05-09T12:32:28.761Z,21.75
2024-05-09T12:33:28.774Z,21.86
2024-05-09T12:34:28.613Z,22.04
2024-05-09T12:35:28.577Z,22.11
2024-05-09T12:36:28.574Z,22.20
2024-05-09T12:37:28.546Z,22.21
2024-05-09T12:38:28.553Z,22.29
2024-05-09T12:39:28.627Z,22.30
2024-05-09T12:40:35.294Z,22.33
2024-05-09T12:41:29.511Z,22.23
2024-05-09T12:42:29.897Z,22.27
2024-05-09T12:43:28.526Z,22.36
2024-05-09T12:44:28.455Z,22.38
2024-05-09T12:45:28.464Z,22.45
2024-05-09T12:46:28.688Z,22.39
2024-05-09T12:47:28.495Z,22.42
2024-05-09T12:48:28.487Z,22.31
2024-05-09T12:49:28.506Z,22.20
2024-05-09T12:50:32.639Z,22.12
2024-05-09T12:51:28.377Z,22.01
2024-05-09T12:52:28.355Z,21.94
2024-05-09T12:53:28.340Z,21.96
2024-05-09T12:54:28.426Z,21.99
2024-05-09T12:55:29.872Z,22.08
2024-05-09T12:56:28.320Z,22.19
2024-05-09T12:57:28.331Z,22.29
2024-05-09T12:58:28.319Z,22.44
2024-05-09T12:59:28.271Z,22.52
2024-05-09T13:00:33.635Z,22.54
2024-05-09T13:01:29.334Z,22.66
2024-05-09T13:02:28.490Z,22.76
2024-05-09T13:03:28.327Z,22.75
2024-05-09T13:04:28.306Z,22.96
2024-05-09T13:05:28.845Z,22.91